sensor_id;sensor_type;location;lat;lon;timestamp;temperature;humidity
30069;DHT22;16894;49.456;10.644;2023-12-20T00:00:37;5.30;29.60
30069;DHT22;16894;49.456;10.644;2023-12-20T00:03:24;5.30;33.30
30069;DHT22;16894;49.456;10.644;2023-12-20T00:06:08;5.30;36.00
30069;DHT22;16894;49.456;10.644;2023-12-20T00:08:53;5.30;39.20
30069;DHT22;16894;49.456;10.644;2023-12-20T00:11:38;5.30;37.40
30069;DHT22;16894;49.456;10.644;2023-12-20T00:14:22;5.30;32.80
30069;DHT22;16894;49.456;10.644;2023-12-20T00:17:06;5.30;32.50
30069;DHT22;16894;49.456;10.644;2023-12-20T00:19:51;5.30;32.00
30069;DHT22;16894;49.456;10.644;2023-12-20T00:22:35;5.40;34.00
30069;DHT22;16894;49.456;10.644;2023-12-20T00:25:19;5.40;32.60
30069;DHT22;16894;49.456;10.644;2023-12-20T00:28:03;5.40;32.70
30069;DHT22;16894;49.456;10.644;2023-12-20T00:30:48;5.30;34.30
30069;DHT22;16894;49.456;10.644;2023-12-20T00:33:32;5.40;38.50
30069;DHT22;16894;49.456;10.644;2023-12-20T00:36:16;5.40;33.30
30069;DHT22;16894;49.456;10.644;2023-12-20T00:39:00;5.40;32.70
30069;DHT22;16894;49.456;10.644;2023-12-20T00:41:45;5.40;34.30
30069;DHT22;16894;49.456;10.644;2023-12-20T00:44:29;5.40;40.80
30069;DHT22;16894;49.456;10.644;2023-12-20T00:47:13;5.30;45.10
30069;DHT22;16894;49.456;10.644;2023-12-20T00:49:58;5.30;47.30
30069;DHT22;16894;49.456;10.644;2023-12-20T00:52:42;5.30;49.10
30069;DHT22;16894;49.456;10.644;2023-12-20T00:55:26;5.30;50.90
30069;DHT22;16894;49.456;10.644;2023-12-20T00:58:10;5.20;50.70
30069;DHT22;16894;49.456;10.644;2023-12-20T01:00:54;5.30;50.70
30069;DHT22;16894;49.456;10.644;2023-12-20T01:03:39;5.20;47.30
30069;DHT22;16894;49.456;10.644;2023-12-20T01:06:23;5.20;49.60
30069;DHT22;16894;49.456;10.644;2023-12-20T01:09:07;5.20;50.10
30069;DHT22;16894;49.456;10.644;2023-12-20T01:11:55;5.10;50.60
30069;DHT22;16894;49.456;10.644;2023-12-20T01:14:39;5.10;47.90
30069;DHT22;16894;49.456;10.644;2023-12-20T01:17:23;5.10;47.90
30069;DHT22;16894;49.456;10.644;2023-12-20T01:20:08;5.10;48.00
30069;DHT22;16894;49.456;10.644;2023-12-20T01:22:52;5.10;49.50
30069;DHT22;16894;49.456;10.644;2023-12-20T01:25:36;5.10;49.30
30069;DHT22;16894;49.456;10.644;2023-12-20T01:28:21;5.10;49.50
30069;DHT22;16894;49.456;10.644;2023-12-20T01:31:05;5.00;52.10
30069;DHT22;16894;49.456;10.644;2023-12-20T01:33:49;5.00;51.50
30069;DHT22;16894;49.456;10.644;2023-12-20T01:36:33;5.00;52.40
30069;DHT22;16894;49.456;10.644;2023-12-20T01:39:17;5.00;49.30
30069;DHT22;16894;49.456;10.644;2023-12-20T01:42:02;5.00;47.10
30069;DHT22;16894;49.456;10.644;2023-12-20T01:44:47;4.90;43.50
30069;DHT22;16894;49.456;10.644;2023-12-20T01:47:31;4.90;43.70
30069;DHT22;16894;49.456;10.644;2023-12-20T01:50:16;4.90;48.30
30069;DHT22;16894;49.456;10.644;2023-12-20T01:53:01;4.90;42.60
30069;DHT22;16894;49.456;10.644;2023-12-20T01:55:48;4.90;41.80
30069;DHT22;16894;49.456;10.644;2023-12-20T01:58:33;4.80;30.70
30069;DHT22;16894;49.456;10.644;2023-12-20T02:01:18;4.80;31.70
30069;DHT22;16894;49.456;10.644;2023-12-20T02:04:02;4.70;36.50
30069;DHT22;16894;49.456;10.644;2023-12-20T02:06:48;4.70;20.60
30069;DHT22;16894;49.456;10.644;2023-12-20T02:09:35;4.70;29.50
30069;DHT22;16894;49.456;10.644;2023-12-20T02:12:19;4.70;23.00
30069;DHT22;16894;49.456;10.644;2023-12-20T02:15:04;4.60;24.10
30069;DHT22;16894;49.456;10.644;2023-12-20T02:17:51;4.60;34.10
30069;DHT22;16894;49.456;10.644;2023-12-20T02:20:35;4.60;32.00
30069;DHT22;16894;49.456;10.644;2023-12-20T02:23:19;4.50;26.60
30069;DHT22;16894;49.456;10.644;2023-12-20T02:26:04;4.50;21.90
30069;DHT22;16894;49.456;10.644;2023-12-20T02:28:50;4.50;24.30
30069;DHT22;16894;49.456;10.644;2023-12-20T02:31:34;4.40;29.00
30069;DHT22;16894;49.456;10.644;2023-12-20T02:34:18;4.40;36.10
30069;DHT22;16894;49.456;10.644;2023-12-20T02:37:02;4.30;43.20
30069;DHT22;16894;49.456;10.644;2023-12-20T02:39:47;4.30;49.40
30069;DHT22;16894;49.456;10.644;2023-12-20T02:42:31;4.30;52.10
30069;DHT22;16894;49.456;10.644;2023-12-20T02:45:15;4.30;41.30
30069;DHT22;16894;49.456;10.644;2023-12-20T02:47:59;4.20;38.20
30069;DHT22;16894;49.456;10.644;2023-12-20T02:50:43;4.20;38.40
30069;DHT22;16894;49.456;10.644;2023-12-20T02:53:27;4.20;38.90
30069;DHT22;16894;49.456;10.644;2023-12-20T02:56:11;4.20;34.60
30069;DHT22;16894;49.456;10.644;2023-12-20T02:58:55;4.20;41.00
30069;DHT22;16894;49.456;10.644;2023-12-20T03:01:44;4.20;43.80
30069;DHT22;16894;49.456;10.644;2023-12-20T03:04:29;4.10;45.60
30069;DHT22;16894;49.456;10.644;2023-12-20T03:07:13;4.10;44.00
30069;DHT22;16894;49.456;10.644;2023-12-20T03:09:57;4.10;46.00
30069;DHT22;16894;49.456;10.644;2023-12-20T03:12:41;4.10;48.10
30069;DHT22;16894;49.456;10.644;2023-12-20T03:15:25;4.10;48.20
30069;DHT22;16894;49.456;10.644;2023-12-20T03:18:09;4.10;48.90
30069;DHT22;16894;49.456;10.644;2023-12-20T03:20:53;4.10;50.10
30069;DHT22;16894;49.456;10.644;2023-12-20T03:23:37;4.10;49.20
30069;DHT22;16894;49.456;10.644;2023-12-20T03:26:21;4.10;49.20
30069;DHT22;16894;49.456;10.644;2023-12-20T03:29:07;4.10;46.40
30069;DHT22;16894;49.456;10.644;2023-12-20T03:31:51;4.10;48.90
30069;DHT22;16894;49.456;10.644;2023-12-20T03:34:35;4.10;49.90
30069;DHT22;16894;49.456;10.644;2023-12-20T03:37:19;4.10;49.60
30069;DHT22;16894;49.456;10.644;2023-12-20T03:40:03;4.00;51.00
30069;DHT22;16894;49.456;10.644;2023-12-20T03:42:48;4.00;49.20
30069;DHT22;16894;49.456;10.644;2023-12-20T03:45:32;4.00;44.90
30069;DHT22;16894;49.456;10.644;2023-12-20T03:48:16;4.00;49.30
30069;DHT22;16894;49.456;10.644;2023-12-20T03:51:00;4.00;50.00
30069;DHT22;16894;49.456;10.644;2023-12-20T03:53:44;4.10;50.50
30069;DHT22;16894;49.456;10.644;2023-12-20T03:56:28;4.00;48.80
30069;DHT22;16894;49.456;10.644;2023-12-20T03:59:13;4.00;49.30
30069;DHT22;16894;49.456;10.644;2023-12-20T04:01:56;4.00;46.80
30069;DHT22;16894;49.456;10.644;2023-12-20T04:04:41;4.00;47.40
30069;DHT22;16894;49.456;10.644;2023-12-20T04:07:26;4.00;46.90
30069;DHT22;16894;49.456;10.644;2023-12-20T04:10:10;4.00;43.30
30069;DHT22;16894;49.456;10.644;2023-12-20T04:12:54;4.00;46.60
30069;DHT22;16894;49.456;10.644;2023-12-20T04:15:39;4.00;48.50
30069;DHT22;16894;49.456;10.644;2023-12-20T04:18:23;3.90;47.40
30069;DHT22;16894;49.456;10.644;2023-12-20T04:21:08;4.00;44.20
30069;DHT22;16894;49.456;10.644;2023-12-20T04:23:52;4.00;40.10
30069;DHT22;16894;49.456;10.644;2023-12-20T04:26:36;3.90;43.50
30069;DHT22;16894;49.456;10.644;2023-12-20T04:29:20;3.90;42.50
30069;DHT22;16894;49.456;10.644;2023-12-20T04:32:05;3.90;43.20
30069;DHT22;16894;49.456;10.644;2023-12-20T04:34:50;3.90;47.20
30069;DHT22;16894;49.456;10.644;2023-12-20T04:37:34;3.90;50.10
30069;DHT22;16894;49.456;10.644;2023-12-20T04:40:18;3.90;48.90
30069;DHT22;16894;49.456;10.644;2023-12-20T04:43:02;3.90;48.30
30069;DHT22;16894;49.456;10.644;2023-12-20T04:45:47;3.90;50.10
30069;DHT22;16894;49.456;10.644;2023-12-20T04:48:31;3.90;50.90
30069;DHT22;16894;49.456;10.644;2023-12-20T04:51:15;3.90;50.70
30069;DHT22;16894;49.456;10.644;2023-12-20T04:53:59;3.90;46.70
30069;DHT22;16894;49.456;10.644;2023-12-20T04:56:43;3.90;44.60
30069;DHT22;16894;49.456;10.644;2023-12-20T04:59:27;3.90;44.70
30069;DHT22;16894;49.456;10.644;2023-12-20T05:02:11;3.80;47.80
30069;DHT22;16894;49.456;10.644;2023-12-20T05:04:56;3.80;51.40
30069;DHT22;16894;49.456;10.644;2023-12-20T05:07:40;3.90;51.70
30069;DHT22;16894;49.456;10.644;2023-12-20T05:10:25;3.80;52.40
30069;DHT22;16894;49.456;10.644;2023-12-20T05:13:10;3.80;53.70
30069;DHT22;16894;49.456;10.644;2023-12-20T05:15:55;3.80;54.50
30069;DHT22;16894;49.456;10.644;2023-12-20T05:18:40;3.80;52.20
30069;DHT22;16894;49.456;10.644;2023-12-20T05:21:24;3.80;51.40
30069;DHT22;16894;49.456;10.644;2023-12-20T05:24:08;3.80;55.80
30069;DHT22;16894;49.456;10.644;2023-12-20T05:26:53;3.80;57.60
30069;DHT22;16894;49.456;10.644;2023-12-20T05:29:37;3.80;55.10
30069;DHT22;16894;49.456;10.644;2023-12-20T05:32:21;3.80;55.60
30069;DHT22;16894;49.456;10.644;2023-12-20T05:35:05;3.90;56.60
30069;DHT22;16894;49.456;10.644;2023-12-20T05:37:50;3.80;59.90
30069;DHT22;16894;49.456;10.644;2023-12-20T05:40:34;3.80;60.70
30069;DHT22;16894;49.456;10.644;2023-12-20T05:43:19;3.80;62.20
30069;DHT22;16894;49.456;10.644;2023-12-20T05:46:03;3.80;61.40
30069;DHT22;16894;49.456;10.644;2023-12-20T05:48:47;3.80;64.10
30069;DHT22;16894;49.456;10.644;2023-12-20T05:51:32;3.80;66.00
30069;DHT22;16894;49.456;10.644;2023-12-20T05:54:16;3.80;65.60
30069;DHT22;16894;49.456;10.644;2023-12-20T05:57:00;3.80;68.30
30069;DHT22;16894;49.456;10.644;2023-12-20T05:59:45;3.80;68.90
30069;DHT22;16894;49.456;10.644;2023-12-20T06:02:29;3.80;70.20
30069;DHT22;16894;49.456;10.644;2023-12-20T06:05:13;3.80;70.50
30069;DHT22;16894;49.456;10.644;2023-12-20T06:07:57;3.90;69.90
30069;DHT22;16894;49.456;10.644;2023-12-20T06:10:45;3.90;71.50
30069;DHT22;16894;49.456;10.644;2023-12-20T06:13:29;3.90;71.00
30069;DHT22;16894;49.456;10.644;2023-12-20T06:16:14;3.90;72.60
30069;DHT22;16894;49.456;10.644;2023-12-20T06:18:58;3.90;72.30
30069;DHT22;16894;49.456;10.644;2023-12-20T06:21:42;4.00;72.70
30069;DHT22;16894;49.456;10.644;2023-12-20T06:24:26;4.00;71.40
30069;DHT22;16894;49.456;10.644;2023-12-20T06:27:12;4.00;71.20
30069;DHT22;16894;49.456;10.644;2023-12-20T06:29:57;4.10;71.20
30069;DHT22;16894;49.456;10.644;2023-12-20T06:32:41;4.10;70.00
30069;DHT22;16894;49.456;10.644;2023-12-20T06:35:26;4.10;69.40
30069;DHT22;16894;49.456;10.644;2023-12-20T06:38:10;4.10;69.10
30069;DHT22;16894;49.456;10.644;2023-12-20T06:40:54;4.10;68.30
30069;DHT22;16894;49.456;10.644;2023-12-20T06:43:38;4.10;68.30
30069;DHT22;16894;49.456;10.644;2023-12-20T06:46:22;4.20;68.10
30069;DHT22;16894;49.456;10.644;2023-12-20T06:49:06;4.20;67.00
30069;DHT22;16894;49.456;10.644;2023-12-20T06:51:50;4.30;66.50
30069;DHT22;16894;49.456;10.644;2023-12-20T06:54:34;4.30;66.10
30069;DHT22;16894;49.456;10.644;2023-12-20T06:57:19;4.30;65.90
30069;DHT22;16894;49.456;10.644;2023-12-20T07:00:04;4.30;66.10
30069;DHT22;16894;49.456;10.644;2023-12-20T07:02:48;4.30;67.40
30069;DHT22;16894;49.456;10.644;2023-12-20T07:05:33;4.30;67.70
30069;DHT22;16894;49.456;10.644;2023-12-20T07:08:18;4.30;69.70
30069;DHT22;16894;49.456;10.644;2023-12-20T07:11:03;4.40;70.00
30069;DHT22;16894;49.456;10.644;2023-12-20T07:13:48;4.40;68.60
30069;DHT22;16894;49.456;10.644;2023-12-20T07:16:34;4.40;68.20
30069;DHT22;16894;49.456;10.644;2023-12-20T07:19:18;4.40;68.70
30069;DHT22;16894;49.456;10.644;2023-12-20T07:22:03;4.40;67.80
30069;DHT22;16894;49.456;10.644;2023-12-20T07:24:47;4.40;66.70
30069;DHT22;16894;49.456;10.644;2023-12-20T07:27:34;4.50;64.40
30069;DHT22;16894;49.456;10.644;2023-12-20T07:30:18;4.50;63.20
30069;DHT22;16894;49.456;10.644;2023-12-20T07:33:02;4.50;65.60
30069;DHT22;16894;49.456;10.644;2023-12-20T07:35:47;4.50;66.60
30069;DHT22;16894;49.456;10.644;2023-12-20T07:38:31;4.50;65.60
30069;DHT22;16894;49.456;10.644;2023-12-20T07:41:15;4.50;66.30
30069;DHT22;16894;49.456;10.644;2023-12-20T07:44:00;4.50;65.50
30069;DHT22;16894;49.456;10.644;2023-12-20T07:46:44;4.50;63.70
30069;DHT22;16894;49.456;10.644;2023-12-20T07:49:28;4.50;63.50
30069;DHT22;16894;49.456;10.644;2023-12-20T07:52:12;4.50;60.70
30069;DHT22;16894;49.456;10.644;2023-12-20T07:54:56;4.60;56.30
30069;DHT22;16894;49.456;10.644;2023-12-20T07:57:41;4.60;53.00
30069;DHT22;16894;49.456;10.644;2023-12-20T08:00:25;4.50;49.30
30069;DHT22;16894;49.456;10.644;2023-12-20T08:03:10;4.60;46.00
30069;DHT22;16894;49.456;10.644;2023-12-20T08:05:54;4.50;45.50
30069;DHT22;16894;49.456;10.644;2023-12-20T08:08:38;4.50;43.80
30069;DHT22;16894;49.456;10.644;2023-12-20T08:11:23;4.50;36.50
30069;DHT22;16894;49.456;10.644;2023-12-20T08:14:07;4.50;28.20
30069;DHT22;16894;49.456;10.644;2023-12-20T08:16:51;4.40;28.90
30069;DHT22;16894;49.456;10.644;2023-12-20T08:19:35;4.40;34.70
30069;DHT22;16894;49.456;10.644;2023-12-20T08:22:19;4.50;37.60
30069;DHT22;16894;49.456;10.644;2023-12-20T08:25:03;4.50;41.90
30069;DHT22;16894;49.456;10.644;2023-12-20T08:27:47;4.50;39.10
30069;DHT22;16894;49.456;10.644;2023-12-20T08:30:31;4.50;41.80
30069;DHT22;16894;49.456;10.644;2023-12-20T08:33:16;4.50;26.90
30069;DHT22;16894;49.456;10.644;2023-12-20T08:36:00;4.50;10.60
30069;DHT22;16894;49.456;10.644;2023-12-20T08:38:49;4.50;6.40
30069;DHT22;16894;49.456;10.644;2023-12-20T08:41:35;4.40;1.00
30069;DHT22;16894;49.456;10.644;2023-12-20T08:44:19;4.40;1.00
30069;DHT22;16894;49.456;10.644;2023-12-20T08:47:04;4.40;1.00
30069;DHT22;16894;49.456;10.644;2023-12-20T08:49:48;4.30;1.00
30069;DHT22;16894;49.456;10.644;2023-12-20T08:52:32;4.20;1.00
30069;DHT22;16894;49.456;10.644;2023-12-20T08:55:17;4.20;1.00
30069;DHT22;16894;49.456;10.644;2023-12-20T08:58:02;4.10;1.00
30069;DHT22;16894;49.456;10.644;2023-12-20T09:00:47;4.10;1.00
30069;DHT22;16894;49.456;10.644;2023-12-20T09:03:31;4.30;1.00
30069;DHT22;16894;49.456;10.644;2023-12-20T09:06:15;4.40;1.00
30069;DHT22;16894;49.456;10.644;2023-12-20T09:08:59;4.50;1.00
30069;DHT22;16894;49.456;10.644;2023-12-20T09:11:44;4.70;1.00
30069;DHT22;16894;49.456;10.644;2023-12-20T09:14:30;4.70;99.90
30069;DHT22;16894;49.456;10.644;2023-12-20T09:17:15;4.70;99.90
30069;DHT22;16894;49.456;10.644;2023-12-20T09:20:00;4.80;99.90
30069;DHT22;16894;49.456;10.644;2023-12-20T09:22:44;4.70;99.90
30069;DHT22;16894;49.456;10.644;2023-12-20T09:25:28;4.70;99.90
30069;DHT22;16894;49.456;10.644;2023-12-20T09:28:13;4.60;99.90
30069;DHT22;16894;49.456;10.644;2023-12-20T09:30:58;4.60;1.00
30069;DHT22;16894;49.456;10.644;2023-12-20T09:33:42;4.60;99.90
30069;DHT22;16894;49.456;10.644;2023-12-20T09:36:26;4.70;99.90
30069;DHT22;16894;49.456;10.644;2023-12-20T09:39:11;4.70;99.90
30069;DHT22;16894;49.456;10.644;2023-12-20T09:42:03;4.80;99.90
30069;DHT22;16894;49.456;10.644;2023-12-20T09:44:48;4.80;99.90
30069;DHT22;16894;49.456;10.644;2023-12-20T09:47:32;4.90;99.90
30069;DHT22;16894;49.456;10.644;2023-12-20T09:50:19;5.10;99.90
30069;DHT22;16894;49.456;10.644;2023-12-20T09:53:05;5.20;99.90
30069;DHT22;16894;49.456;10.644;2023-12-20T09:55:53;5.30;99.90
30069;DHT22;16894;49.456;10.644;2023-12-20T09:58:37;5.40;99.90
30069;DHT22;16894;49.456;10.644;2023-12-20T10:01:24;5.50;36.70
30069;DHT22;16894;49.456;10.644;2023-12-20T10:04:09;5.50;99.90
30069;DHT22;16894;49.456;10.644;2023-12-20T10:06:56;5.50;96.10
30069;DHT22;16894;49.456;10.644;2023-12-20T10:09:41;5.40;99.90
30069;DHT22;16894;49.456;10.644;2023-12-20T10:12:26;5.60;1.00
30069;DHT22;16894;49.456;10.644;2023-12-20T10:15:10;5.60;99.90
30069;DHT22;16894;49.456;10.644;2023-12-20T10:17:54;5.60;1.00
30069;DHT22;16894;49.456;10.644;2023-12-20T10:20:41;5.80;1.00
30069;DHT22;16894;49.456;10.644;2023-12-20T10:23:25;6.00;1.00
30069;DHT22;16894;49.456;10.644;2023-12-20T10:26:09;5.90;99.90
30069;DHT22;16894;49.456;10.644;2023-12-20T10:28:59;5.90;1.00
30069;DHT22;16894;49.456;10.644;2023-12-20T10:31:43;5.70;99.90
30069;DHT22;16894;49.456;10.644;2023-12-20T10:34:32;5.50;99.90
30069;DHT22;16894;49.456;10.644;2023-12-20T10:37:17;5.40;93.20
30069;DHT22;16894;49.456;10.644;2023-12-20T10:40:03;5.30;1.00
30069;DHT22;16894;49.456;10.644;2023-12-20T10:42:49;5.30;1.00
30069;DHT22;16894;49.456;10.644;2023-12-20T10:45:34;5.30;52.50
30069;DHT22;16894;49.456;10.644;2023-12-20T10:48:20;5.30;99.90
30069;DHT22;16894;49.456;10.644;2023-12-20T10:51:06;5.30;5.30
30069;DHT22;16894;49.456;10.644;2023-12-20T10:53:52;5.30;99.90
30069;DHT22;16894;49.456;10.644;2023-12-20T10:56:38;5.20;91.10
30069;DHT22;16894;49.456;10.644;2023-12-20T10:59:23;5.20;99.90
30069;DHT22;16894;49.456;10.644;2023-12-20T11:02:08;5.20;99.90
30069;DHT22;16894;49.456;10.644;2023-12-20T11:08:19;5.10;34.50
30069;DHT22;16894;49.456;10.644;2023-12-20T11:11:29;5.10;99.90
30069;DHT22;16894;49.456;10.644;2023-12-20T11:17:24;5.20;98.90
30069;DHT22;16894;49.456;10.644;2023-12-20T11:20:10;5.10;99.90
30069;DHT22;16894;49.456;10.644;2023-12-20T11:22:55;5.10;99.90
30069;DHT22;16894;49.456;10.644;2023-12-20T11:25:52;5.20;99.90
30069;DHT22;16894;49.456;10.644;2023-12-20T11:28:37;5.20;99.90
30069;DHT22;16894;49.456;10.644;2023-12-20T11:31:21;5.20;99.90
30069;DHT22;16894;49.456;10.644;2023-12-20T11:34:15;5.20;99.90
30069;DHT22;16894;49.456;10.644;2023-12-20T11:37:02;5.30;99.90
30069;DHT22;16894;49.456;10.644;2023-12-20T11:39:59;5.30;99.90
30069;DHT22;16894;49.456;10.644;2023-12-20T11:42:49;5.30;32.10
30069;DHT22;16894;49.456;10.644;2023-12-20T11:45:34;5.50;99.90
30069;DHT22;16894;49.456;10.644;2023-12-20T11:48:21;5.40;99.90
30069;DHT22;16894;49.456;10.644;2023-12-20T11:51:12;5.50;23.10
30069;DHT22;16894;49.456;10.644;2023-12-20T11:53:57;5.60;99.90
30069;DHT22;16894;49.456;10.644;2023-12-20T11:56:42;5.70;99.90
30069;DHT22;16894;49.456;10.644;2023-12-20T11:59:26;5.70;99.90
30069;DHT22;16894;49.456;10.644;2023-12-20T12:02:12;5.60;99.90
30069;DHT22;16894;49.456;10.644;2023-12-20T12:04:56;5.40;99.90
30069;DHT22;16894;49.456;10.644;2023-12-20T12:07:42;5.20;99.90
30069;DHT22;16894;49.456;10.644;2023-12-20T12:10:26;5.20;99.90
30069;DHT22;16894;49.456;10.644;2023-12-20T12:13:10;5.30;99.90
30069;DHT22;16894;49.456;10.644;2023-12-20T12:15:55;5.30;98.80
30069;DHT22;16894;49.456;10.644;2023-12-20T12:18:39;5.30;99.90
30069;DHT22;16894;49.456;10.644;2023-12-20T12:21:26;5.40;99.90
30069;DHT22;16894;49.456;10.644;2023-12-20T12:24:10;5.40;1.00
30069;DHT22;16894;49.456;10.644;2023-12-20T12:26:57;5.40;89.50
30069;DHT22;16894;49.456;10.644;2023-12-20T12:30:05;5.40;99.90
30069;DHT22;16894;49.456;10.644;2023-12-20T12:32:56;5.40;12.70
30069;DHT22;16894;49.456;10.644;2023-12-20T12:35:40;5.60;99.90
30069;DHT22;16894;49.456;10.644;2023-12-20T12:38:25;5.70;99.90
30069;DHT22;16894;49.456;10.644;2023-12-20T12:41:09;5.70;1.00
30069;DHT22;16894;49.456;10.644;2023-12-20T12:43:54;5.60;99.90
30069;DHT22;16894;49.456;10.644;2023-12-20T12:46:38;5.50;88.10
30069;DHT22;16894;49.456;10.644;2023-12-20T12:49:23;5.30;1.00
30069;DHT22;16894;49.456;10.644;2023-12-20T12:52:07;5.10;99.90
30069;DHT22;16894;49.456;10.644;2023-12-20T12:54:53;5.00;99.90
30069;DHT22;16894;49.456;10.644;2023-12-20T12:57:37;5.00;99.90
30069;DHT22;16894;49.456;10.644;2023-12-20T13:00:21;5.00;99.90
30069;DHT22;16894;49.456;10.644;2023-12-20T13:03:07;5.00;99.90
30069;DHT22;16894;49.456;10.644;2023-12-20T13:05:51;5.00;99.90
30069;DHT22;16894;49.456;10.644;2023-12-20T13:08:35;5.00;99.90
30069;DHT22;16894;49.456;10.644;2023-12-20T13:11:19;5.00;99.90
30069;DHT22;16894;49.456;10.644;2023-12-20T13:14:04;4.90;99.90
30069;DHT22;16894;49.456;10.644;2023-12-20T13:16:48;4.90;99.90
30069;DHT22;16894;49.456;10.644;2023-12-20T13:19:32;4.70;99.90
30069;DHT22;16894;49.456;10.644;2023-12-20T13:22:16;4.70;99.90
30069;DHT22;16894;49.456;10.644;2023-12-20T13:25:01;4.60;99.90
30069;DHT22;16894;49.456;10.644;2023-12-20T13:27:46;4.50;99.90
30069;DHT22;16894;49.456;10.644;2023-12-20T13:30:31;4.50;99.90
30069;DHT22;16894;49.456;10.644;2023-12-20T13:33:15;4.40;99.90
30069;DHT22;16894;49.456;10.644;2023-12-20T13:35:59;4.50;99.90
30069;DHT22;16894;49.456;10.644;2023-12-20T13:38:44;4.50;99.90
30069;DHT22;16894;49.456;10.644;2023-12-20T13:41:28;4.60;99.90
30069;DHT22;16894;49.456;10.644;2023-12-20T13:44:12;4.60;99.90
30069;DHT22;16894;49.456;10.644;2023-12-20T13:46:57;4.60;99.90
30069;DHT22;16894;49.456;10.644;2023-12-20T13:49:41;4.70;99.90
30069;DHT22;16894;49.456;10.644;2023-12-20T13:52:25;4.60;99.90
30069;DHT22;16894;49.456;10.644;2023-12-20T13:55:09;4.60;99.90
30069;DHT22;16894;49.456;10.644;2023-12-20T13:57:54;4.50;99.90
30069;DHT22;16894;49.456;10.644;2023-12-20T14:00:38;4.50;99.90
30069;DHT22;16894;49.456;10.644;2023-12-20T14:03:22;4.40;99.90
30069;DHT22;16894;49.456;10.644;2023-12-20T14:06:06;4.40;99.90
30069;DHT22;16894;49.456;10.644;2023-12-20T14:08:50;4.40;99.90
30069;DHT22;16894;49.456;10.644;2023-12-20T14:11:34;4.40;99.90
30069;DHT22;16894;49.456;10.644;2023-12-20T14:14:25;4.40;99.90
30069;DHT22;16894;49.456;10.644;2023-12-20T14:17:09;4.40;99.90
30069;DHT22;16894;49.456;10.644;2023-12-20T14:19:53;4.30;99.90
30069;DHT22;16894;49.456;10.644;2023-12-20T14:22:39;4.30;1.00
30069;DHT22;16894;49.456;10.644;2023-12-20T14:25:28;4.30;1.00
30069;DHT22;16894;49.456;10.644;2023-12-20T14:28:12;4.30;1.00
30069;DHT22;16894;49.456;10.644;2023-12-20T14:30:58;4.30;1.00
30069;DHT22;16894;49.456;10.644;2023-12-20T14:33:42;4.30;99.90
30069;DHT22;16894;49.456;10.644;2023-12-20T14:36:27;4.30;1.00
30069;DHT22;16894;49.456;10.644;2023-12-20T14:39:12;4.30;1.00
30069;DHT22;16894;49.456;10.644;2023-12-20T14:41:56;4.20;99.90
30069;DHT22;16894;49.456;10.644;2023-12-20T14:44:41;4.20;1.00
30069;DHT22;16894;49.456;10.644;2023-12-20T14:47:25;4.20;1.00
30069;DHT22;16894;49.456;10.644;2023-12-20T14:50:10;4.30;1.00
30069;DHT22;16894;49.456;10.644;2023-12-20T14:52:56;4.30;99.90
30069;DHT22;16894;49.456;10.644;2023-12-20T14:55:41;4.30;99.90
30069;DHT22;16894;49.456;10.644;2023-12-20T14:58:07;4.20;99.90
30069;DHT22;16894;49.456;10.644;2023-12-20T15:00:33;4.30;99.90
30069;DHT22;16894;49.456;10.644;2023-12-20T15:02:59;4.30;99.90
30069;DHT22;16894;49.456;10.644;2023-12-20T15:05:25;4.30;99.90
30069;DHT22;16894;49.456;10.644;2023-12-20T15:07:51;4.30;99.90
30069;DHT22;16894;49.456;10.644;2023-12-20T15:10:18;4.30;99.90
30069;DHT22;16894;49.456;10.644;2023-12-20T15:12:44;4.20;99.90
30069;DHT22;16894;49.456;10.644;2023-12-20T15:15:10;4.20;99.90
30069;DHT22;16894;49.456;10.644;2023-12-20T15:17:37;4.20;99.90
30069;DHT22;16894;49.456;10.644;2023-12-20T15:20:03;4.20;99.90
30069;DHT22;16894;49.456;10.644;2023-12-20T15:22:33;4.30;99.90
30069;DHT22;16894;49.456;10.644;2023-12-20T15:24:59;4.20;99.90
30069;DHT22;16894;49.456;10.644;2023-12-20T15:27:26;4.20;99.90
30069;DHT22;16894;49.456;10.644;2023-12-20T15:29:52;4.20;99.90
30069;DHT22;16894;49.456;10.644;2023-12-20T15:32:18;4.20;99.90
30069;DHT22;16894;49.456;10.644;2023-12-20T15:34:46;4.20;99.90
30069;DHT22;16894;49.456;10.644;2023-12-20T15:37:12;4.20;99.90
30069;DHT22;16894;49.456;10.644;2023-12-20T15:39:38;4.30;99.90
30069;DHT22;16894;49.456;10.644;2023-12-20T15:42:03;4.20;99.90
30069;DHT22;16894;49.456;10.644;2023-12-20T15:44:29;4.30;99.90
30069;DHT22;16894;49.456;10.644;2023-12-20T15:46:55;4.30;99.90
30069;DHT22;16894;49.456;10.644;2023-12-20T15:49:20;4.30;99.90
30069;DHT22;16894;49.456;10.644;2023-12-20T15:51:46;4.30;99.90
30069;DHT22;16894;49.456;10.644;2023-12-20T15:54:12;4.30;99.90
30069;DHT22;16894;49.456;10.644;2023-12-20T15:56:38;4.30;99.90
30069;DHT22;16894;49.456;10.644;2023-12-20T15:59:06;4.30;99.90
30069;DHT22;16894;49.456;10.644;2023-12-20T16:01:32;4.30;99.90
30069;DHT22;16894;49.456;10.644;2023-12-20T16:03:58;4.30;99.90
30069;DHT22;16894;49.456;10.644;2023-12-20T16:06:24;4.30;99.90
30069;DHT22;16894;49.456;10.644;2023-12-20T16:08:49;4.30;99.90
30069;DHT22;16894;49.456;10.644;2023-12-20T16:11:15;4.30;99.90
30069;DHT22;16894;49.456;10.644;2023-12-20T16:13:41;4.30;99.90
30069;DHT22;16894;49.456;10.644;2023-12-20T16:16:07;4.30;99.90
30069;DHT22;16894;49.456;10.644;2023-12-20T16:18:32;4.20;99.90
30069;DHT22;16894;49.456;10.644;2023-12-20T16:20:58;4.20;99.90
30069;DHT22;16894;49.456;10.644;2023-12-20T16:23:26;4.20;99.90
30069;DHT22;16894;49.456;10.644;2023-12-20T16:25:52;4.20;99.90
30069;DHT22;16894;49.456;10.644;2023-12-20T16:28:18;4.20;99.90
30069;DHT22;16894;49.456;10.644;2023-12-20T16:30:44;4.30;99.90
30069;DHT22;16894;49.456;10.644;2023-12-20T16:33:10;4.20;99.90
30069;DHT22;16894;49.456;10.644;2023-12-20T16:35:36;4.20;99.90
30069;DHT22;16894;49.456;10.644;2023-12-20T16:38:02;4.30;99.90
30069;DHT22;16894;49.456;10.644;2023-12-20T16:40:28;4.30;99.90
30069;DHT22;16894;49.456;10.644;2023-12-20T16:42:54;4.30;99.90
30069;DHT22;16894;49.456;10.644;2023-12-20T16:45:22;4.40;99.90
30069;DHT22;16894;49.456;10.644;2023-12-20T16:47:48;4.40;99.90
30069;DHT22;16894;49.456;10.644;2023-12-20T16:50:14;4.40;99.90
30069;DHT22;16894;49.456;10.644;2023-12-20T16:52:40;4.50;99.90
30069;DHT22;16894;49.456;10.644;2023-12-20T16:55:08;4.40;99.90
30069;DHT22;16894;49.456;10.644;2023-12-20T16:57:35;4.40;99.90
30069;DHT22;16894;49.456;10.644;2023-12-20T17:00:01;4.40;99.90
30069;DHT22;16894;49.456;10.644;2023-12-20T17:02:27;4.40;99.90
30069;DHT22;16894;49.456;10.644;2023-12-20T17:04:53;4.40;99.90
30069;DHT22;16894;49.456;10.644;2023-12-20T17:07:19;4.40;99.90
30069;DHT22;16894;49.456;10.644;2023-12-20T17:09:44;4.50;99.90
30069;DHT22;16894;49.456;10.644;2023-12-20T17:12:11;4.50;99.90